Brandenburg, KY

9:31 PM EST on January 26, 2015 (GMT -0500)
Godman Army Air Field | Change Station
CLOSE
Current Station
Airport
Location: Fort Knox,
Elevation: 755 ft
Nearby Weather Stations
Active Advisory: Special Statement

Elev 755 ft 37.91 °N, 85.97 °W | Updated 7 minutes ago

Overcast
Overcast
28 °F
Feels Like 20 °F
N
8
Wind Variable Wind from WSW

Today
High -- | Low -- °F
--% Chance of Precip.
Yesterday
High -- | Low -- °F
Precip. -- in
7:53 AM 6:00 PM
Waxing Crescent, 49% visible
Pressure 29.94 in
Visibility 10.0 miles
Clouds Overcast 800 ft
Windchill 20 °F
Dew Point 25 °F
Humidity 86%
Rainfall 0.01 in
Snow Depth Not available.
UV 0 out of 12
Pollen .10 out of 12
Air Quality Not available.
Flu Activity Not available.
SPECI KFTK 270224Z AUTO 24007KT 10SM OVC008 M02/M04 A2994 RMK AO2 SNE0158B0214 OVC V BKN

More Conditions Fewer Conditions

Pressure 29.94 in
Visibility 10.0 miles
Clouds Overcast 800 ft
Windchill 20 °F
Dew Point 25 °F
Humidity 86%
Rainfall 0.01 in
Snow Depth Not available.
UV 0 out of 12
Pollen .10 out of 12
Air Quality Not available.
Flu Activity Not available.
SPECI KFTK 270224Z AUTO 24007KT 10SM OVC008 M02/M04 A2994 RMK AO2 SNE0158B0214 OVC V BKN

More Conditions Fewer Conditions

10-Day Weather Forecast

Almanac

Astronomy

Jan. 26, 2015 Rise Set
Actual Time
Civil Twilight
Nautical Twilight
Astronomical Twilight
Moon
Length of Visible Light
Length of Day
Tomorrow will be .
, % of the Moon is Illuminated

Today's Extremes

State Highs State Lows

Community

WunderPhotos

Upload Photos

1,790,478 photos uploaded!

WunderBlogs® & News

Nearby

Air Quality

  Air Quality AQ Index Pollutant
Not available.

Snow Depth

Station Depth Elevation

Earthquake Activity

City Distance Mag. Time & Date
Minimum magnitude displayed is 2.5.

Coastal Water Temperatures

Place Temperature

Nearby Weather Stations